createdAt,value
2023-04-10T00:00:57.165Z,10.73
2023-04-10T00:03:24.709Z,10.76
2023-04-10T00:05:51.569Z,10.71
2023-04-10T00:08:18.107Z,10.63
2023-04-10T00:10:44.706Z,10.61
2023-04-10T00:13:11.255Z,10.62
2023-04-10T00:15:37.893Z,10.58
2023-04-10T00:18:04.638Z,10.61
2023-04-10T00:20:31.246Z,10.62
2023-04-10T00:22:57.810Z,10.57
2023-04-10T00:25:24.612Z,10.46
2023-04-10T00:27:51.128Z,10.41
2023-04-10T00:30:17.672Z,10.36
2023-04-10T00:32:44.252Z,10.39
2023-04-10T00:35:10.881Z,10.38
2023-04-10T00:37:37.703Z,10.31
2023-04-10T00:40:06.274Z,10.29
2023-04-10T00:42:33.357Z,10.28
2023-04-10T00:45:00.609Z,10.33
2023-04-10T00:47:28.261Z,10.27
2023-04-10T00:49:55.007Z,10.20
2023-04-10T00:52:21.661Z,10.23
2023-04-10T00:54:48.358Z,10.19
2023-04-10T00:57:14.997Z,10.23
2023-04-10T00:59:41.920Z,10.21
2023-04-10T01:02:08.606Z,10.21
2023-04-10T01:04:35.404Z,10.15
2023-04-10T01:09:49.323Z,10.16
2023-04-10T01:15:20.346Z,10.22
2023-04-10T01:18:11.616Z,10.16
2023-04-10T01:20:40.188Z,10.19
2023-04-10T01:28:57.669Z,10.08
2023-04-10T01:34:19.173Z,10.13
2023-04-10T01:36:51.757Z,10.13
2023-04-10T01:39:20.763Z,10.08
2023-04-10T01:41:50.736Z,10.12
2023-04-10T01:44:21.413Z,10.09
2023-04-10T01:46:50.097Z,10.10
2023-04-10T01:49:18.026Z,10.06
2023-04-10T01:51:46.508Z,9.99
2023-04-10T01:54:13.442Z,10.00
2023-04-10T01:56:41.730Z,9.93
2023-04-10T01:59:08.704Z,9.90
2023-04-10T02:01:35.338Z,9.84
2023-04-10T02:04:02.494Z,9.82
2023-04-10T02:09:23.396Z,9.82
2023-04-10T02:11:58.941Z,9.79
2023-04-10T02:14:29.406Z,9.80
2023-04-10T02:16:56.966Z,9.76
2023-04-10T02:19:27.039Z,9.82
2023-04-10T02:21:54.108Z,9.71
2023-04-10T02:24:21.666Z,9.73
2023-04-10T02:26:50.057Z,9.79
2023-04-10T02:29:17.333Z,9.80
2023-04-10T02:31:45.536Z,9.80
2023-04-10T02:34:12.600Z,9.81
2023-04-10T02:36:39.895Z,9.76
2023-04-10T02:39:07.083Z,9.77
2023-04-10T02:41:33.712Z,9.81
2023-04-10T02:44:00.390Z,9.81
2023-04-10T02:46:27.087Z,9.73
2023-04-10T02:48:53.903Z,9.82
2023-04-10T02:51:20.550Z,9.79
2023-04-10T02:53:48.260Z,9.80
2023-04-10T02:56:14.836Z,9.77
2023-04-10T02:58:45.506Z,9.75
2023-04-10T03:01:13.485Z,9.79
2023-04-10T03:03:40.232Z,9.81
2023-04-10T03:06:09.274Z,9.76
2023-04-10T03:08:35.811Z,9.78
2023-04-10T03:11:02.967Z,9.78
2023-04-10T03:13:29.585Z,9.79
2023-04-10T03:15:56.196Z,9.82
2023-04-10T03:18:22.794Z,9.80
2023-04-10T03:20:49.533Z,9.82
2023-04-10T03:23:16.082Z,9.81
2023-04-10T03:25:43.273Z,9.83
2023-04-10T03:28:09.954Z,9.79
2023-04-10T03:30:37.347Z,9.75
2023-04-10T03:33:04.154Z,9.73
2023-04-10T03:35:31.006Z,9.69
2023-04-10T03:37:57.731Z,9.77
2023-04-10T03:40:24.350Z,9.81
2023-04-10T03:42:50.984Z,9.82
2023-04-10T03:45:17.554Z,9.83
2023-04-10T03:47:44.185Z,9.82
2023-04-10T03:50:10.914Z,9.84
2023-04-10T03:52:37.599Z,9.88
2023-04-10T03:55:04.573Z,9.85
2023-04-10T03:57:31.120Z,9.90
2023-04-10T03:59:57.633Z,9.94
2023-04-10T04:02:24.318Z,9.95
2023-04-10T04:04:51.047Z,9.95
2023-04-10T04:07:17.757Z,9.94
2023-04-10T04:09:44.604Z,9.95
2023-04-10T04:12:11.139Z,9.92
2023-04-10T04:14:37.661Z,9.93
2023-04-10T04:17:04.274Z,9.98
2023-04-10T04:19:31.000Z,9.99
2023-04-10T04:21:57.884Z,9.98
2023-04-10T04:24:24.610Z,10.05
2023-04-10T04:26:51.568Z,10.05
2023-04-10T04:29:18.186Z,10.00
2023-04-10T04:31:44.776Z,10.05
2023-04-10T04:34:11.345Z,10.07
2023-04-10T04:36:37.906Z,10.08
2023-04-10T04:39:04.581Z,10.09
2023-04-10T04:41:32.543Z,10.14
2023-04-10T04:44:01.191Z,10.16
2023-04-10T04:46:28.029Z,10.18
2023-04-10T04:48:54.816Z,10.18
2023-04-10T04:51:21.346Z,10.13
2023-04-10T04:53:47.929Z,10.17
2023-04-10T04:56:14.486Z,10.12
2023-04-10T04:58:41.083Z,10.17
2023-04-10T05:01:08.287Z,10.19
2023-04-10T05:03:35.036Z,10.21
2023-04-10T05:06:01.793Z,10.21
2023-04-10T05:08:28.393Z,10.26
2023-04-10T05:10:54.977Z,10.25
2023-04-10T05:13:21.545Z,10.24
2023-04-10T05:15:49.038Z,10.32
2023-04-10T05:18:19.605Z,10.26
2023-04-10T05:20:47.520Z,10.28
2023-04-10T05:23:14.370Z,10.31
2023-04-10T05:25:41.514Z,10.28
2023-04-10T05:28:08.106Z,10.29
2023-04-10T05:30:34.757Z,10.33
2023-04-10T05:33:01.368Z,10.35
2023-04-10T05:35:27.963Z,10.34
2023-04-10T05:37:54.550Z,10.37
2023-04-10T05:40:21.107Z,10.40
2023-04-10T05:42:47.662Z,10.42
2023-04-10T05:45:15.251Z,10.44
2023-04-10T05:47:42.037Z,10.44
2023-04-10T05:50:09.118Z,10.47
2023-04-10T05:52:35.664Z,10.49
2023-04-10T05:55:02.563Z,10.49
2023-04-10T05:57:29.901Z,10.50
2023-04-10T05:59:56.548Z,10.52
2023-04-10T06:02:23.294Z,10.54
2023-04-10T06:04:50.236Z,10.57
2023-04-10T06:07:16.835Z,10.59
2023-04-10T06:09:43.366Z,10.60
2023-04-10T06:12:09.957Z,10.65
2023-04-10T06:14:36.525Z,10.60
2023-04-10T06:17:03.128Z,10.62
2023-04-10T06:19:29.692Z,10.63
2023-04-10T06:21:56.253Z,10.65
2023-04-10T06:24:23.049Z,10.67
2023-04-10T06:26:49.775Z,10.68
2023-04-10T06:29:16.601Z,10.70
2023-04-10T06:31:44.544Z,10.70
2023-04-10T06:34:11.185Z,10.73
2023-04-10T06:36:37.905Z,10.76
2023-04-10T06:39:04.581Z,10.78
2023-04-10T06:41:31.173Z,10.84
2023-04-10T06:43:57.729Z,10.83
2023-04-10T06:46:24.354Z,10.84
2023-04-10T06:48:50.977Z,10.85
2023-04-10T06:51:17.511Z,10.83
2023-04-10T06:53:44.030Z,10.89
2023-04-10T06:56:10.837Z,10.93
2023-04-10T06:58:37.435Z,10.95
2023-04-10T07:01:04.844Z,10.96
2023-04-10T07:03:32.698Z,10.99
2023-04-10T07:06:00.021Z,11.01
2023-04-10T07:08:26.625Z,11.03
2023-04-10T07:10:53.219Z,11.05
2023-04-10T07:13:19.763Z,11.08
2023-04-10T07:15:46.688Z,11.09
2023-04-10T07:18:13.221Z,11.11
2023-04-10T07:20:39.760Z,11.10
2023-04-10T07:23:06.298Z,11.12
2023-04-10T07:25:34.272Z,11.15
2023-04-10T07:28:01.010Z,11.16
2023-04-10T07:30:27.637Z,11.18
2023-04-10T07:32:54.353Z,11.18
2023-04-10T07:35:21.141Z,11.19
2023-04-10T07:37:51.601Z,11.20
2023-04-10T07:40:18.348Z,11.17
2023-04-10T07:42:44.891Z,11.21
2023-04-10T07:45:12.321Z,11.19
2023-04-10T07:47:38.938Z,11.20
2023-04-10T07:50:06.390Z,11.21
2023-04-10T07:52:33.020Z,11.22
2023-04-10T07:55:02.990Z,11.25
2023-04-10T07:57:29.536Z,11.18
2023-04-10T07:59:56.993Z,11.26
2023-04-10T08:02:23.663Z,11.30
2023-04-10T08:04:50.680Z,11.34
2023-04-10T08:07:21.022Z,11.36
2023-04-10T08:09:47.617Z,11.35
2023-04-10T08:12:14.195Z,11.38
2023-04-10T08:14:40.890Z,11.36
2023-04-10T08:17:14.429Z,11.36
2023-04-10T08:19:42.170Z,11.36
2023-04-10T08:22:09.415Z,11.34
2023-04-10T08:24:36.013Z,11.34
2023-04-10T08:27:02.644Z,11.28
2023-04-10T08:29:29.267Z,11.34
2023-04-10T08:31:56.579Z,11.38
2023-04-10T08:34:24.531Z,11.36
2023-04-10T08:36:51.084Z,11.40
2023-04-10T08:39:18.453Z,11.42
2023-04-10T08:41:45.278Z,11.41
2023-04-10T08:44:11.974Z,11.45
2023-04-10T08:46:43.678Z,11.49
2023-04-10T08:49:15.610Z,11.50
2023-04-10T08:51:47.953Z,11.52
2023-04-10T08:54:23.426Z,11.51
2023-04-10T08:56:51.658Z,11.54
2023-04-10T08:59:18.357Z,11.57
2023-04-10T09:01:46.822Z,11.59
2023-04-10T09:04:14.289Z,11.57
2023-04-10T09:06:41.080Z,11.61
2023-04-10T09:09:07.816Z,11.63
2023-04-10T09:14:32.258Z,11.67
2023-04-10T09:19:56.443Z,11.75
2023-04-10T09:22:32.322Z,11.79
2023-04-10T09:25:00.167Z,11.83
2023-04-10T09:27:31.917Z,11.88
2023-04-10T09:29:59.008Z,11.87
2023-04-10T09:32:40.918Z,11.87
2023-04-10T09:35:08.810Z,11.91
2023-04-10T09:37:36.332Z,11.92
2023-04-10T09:40:03.756Z,11.94
2023-04-10T09:42:32.713Z,11.98
2023-04-10T09:45:00.044Z,11.98
2023-04-10T09:47:27.262Z,11.97
2023-04-10T09:49:55.725Z,12.01
2023-04-10T09:52:28.588Z,12.05
2023-04-10T09:54:59.001Z,12.14
2023-04-10T09:57:28.593Z,12.20
2023-04-10T09:59:57.353Z,12.27
2023-04-10T10:02:26.493Z,12.31
2023-04-10T10:04:53.630Z,12.39
2023-04-10T10:07:22.628Z,12.46
2023-04-10T10:09:51.679Z,12.51
2023-04-10T10:15:02.164Z,12.84
2023-04-10T10:17:37.289Z,12.67
2023-04-10T10:20:09.394Z,12.69
2023-04-10T10:22:37.629Z,12.71
2023-04-10T10:25:04.697Z,12.75
2023-04-10T10:27:32.779Z,12.77
2023-04-10T10:30:02.955Z,12.82
2023-04-10T10:32:34.470Z,12.82
2023-04-10T10:35:02.342Z,12.85
2023-04-10T10:37:30.278Z,12.82
2023-04-10T10:40:06.655Z,12.80
2023-04-10T10:42:56.671Z,12.77
2023-04-10T10:45:31.449Z,12.74
2023-04-10T10:47:58.840Z,12.75
2023-04-10T10:50:25.525Z,12.71
2023-04-10T10:52:54.025Z,12.75
2023-04-10T10:58:02.507Z,12.93
2023-04-10T11:03:28.515Z,13.65
2023-04-10T11:05:58.698Z,13.99
2023-04-10T11:19:14.934Z,15.05
2023-04-10T11:22:04.100Z,14.97
2023-04-10T11:24:59.465Z,14.82
2023-04-10T11:27:49.101Z,14.68
2023-04-10T11:30:36.435Z,14.65
2023-04-10T11:33:04.762Z,14.78
2023-04-10T11:35:32.564Z,14.88
2023-04-10T11:38:17.319Z,14.89
2023-04-10T11:41:02.451Z,14.97
2023-04-10T11:43:29.049Z,15.10
2023-04-10T11:46:06.220Z,15.24
2023-04-10T11:48:33.641Z,15.18
2023-04-10T11:51:07.402Z,15.03
2023-04-10T11:53:34.257Z,15.02
2023-04-10T11:56:00.783Z,15.19
2023-04-10T11:58:30.639Z,15.26
2023-04-10T12:06:14.544Z,15.47
2023-04-10T12:08:45.978Z,15.43
2023-04-10T12:11:13.144Z,15.30
2023-04-10T12:13:40.153Z,15.35
2023-04-10T12:16:08.498Z,15.22
2023-04-10T12:18:35.948Z,15.04
2023-04-10T12:21:05.023Z,14.82
2023-04-10T12:23:32.563Z,14.31
2023-04-10T12:26:10.320Z,14.07
2023-04-10T12:31:14.410Z,14.31
2023-04-10T12:33:44.676Z,14.18
2023-04-10T12:36:30.250Z,14.08
2023-04-10T12:38:58.328Z,14.09
2023-04-10T12:41:27.202Z,14.21
2023-04-10T12:44:06.757Z,14.27
2023-04-10T12:46:33.540Z,14.29
2023-04-10T12:49:11.494Z,14.43
2023-04-10T12:51:42.660Z,14.61
2023-04-10T12:54:09.333Z,14.70
2023-04-10T12:56:45.868Z,14.70
2023-04-10T12:59:12.656Z,14.80
2023-04-10T13:01:39.728Z,14.81
2023-04-10T13:04:06.907Z,14.78
2023-04-10T13:06:33.488Z,14.83
2023-04-10T13:09:00.054Z,14.86
2023-04-10T13:11:26.568Z,14.88
2023-04-10T13:13:53.119Z,14.83
2023-04-10T13:16:19.725Z,14.95
2023-04-10T13:18:46.244Z,14.94
2023-04-10T13:21:13.020Z,15.09
2023-04-10T13:23:39.576Z,15.06
2023-04-10T13:26:06.435Z,14.76
2023-04-10T13:28:32.972Z,14.62
2023-04-10T13:30:59.520Z,14.36
2023-04-10T13:33:26.284Z,13.72
2023-04-10T13:35:52.867Z,13.44
2023-04-10T13:38:21.301Z,13.21
2023-04-10T13:40:48.094Z,13.15
2023-04-10T13:43:14.678Z,13.23
2023-04-10T13:45:41.602Z,13.33
2023-04-10T13:48:08.294Z,13.40
2023-04-10T13:50:35.028Z,13.37
2023-04-10T13:53:02.126Z,13.40
2023-04-10T13:55:28.719Z,13.27
2023-04-10T13:57:55.274Z,13.28
2023-04-10T14:00:22.101Z,13.32
2023-04-10T14:02:48.771Z,13.35
2023-04-10T14:05:15.510Z,13.41
2023-04-10T14:07:42.011Z,13.35
2023-04-10T14:10:09.097Z,13.46
2023-04-10T14:12:37.050Z,13.55
2023-04-10T14:15:04.778Z,13.58
2023-04-10T14:17:31.321Z,13.54
2023-04-10T14:19:57.885Z,13.65
2023-04-10T14:22:24.407Z,13.58
2023-04-10T14:24:52.557Z,13.65
2023-04-10T14:27:22.989Z,13.67
2023-04-10T14:29:54.790Z,13.61
2023-04-10T14:32:21.995Z,13.73
2023-04-10T14:34:48.595Z,13.84
2023-04-10T14:37:15.644Z,14.00
2023-04-10T14:39:42.357Z,14.09
2023-04-10T14:42:09.120Z,14.20
2023-04-10T14:44:35.789Z,14.18
2023-04-10T14:47:02.380Z,14.28
2023-04-10T14:49:28.913Z,14.34
2023-04-10T14:51:55.466Z,14.34
2023-04-10T14:54:23.685Z,14.44
2023-04-10T14:56:50.602Z,14.30
2023-04-10T14:59:17.833Z,14.12
2023-04-10T15:01:44.507Z,14.08
2023-04-10T15:04:11.899Z,13.96
2023-04-10T15:06:38.590Z,13.72
2023-04-10T15:09:05.383Z,13.81
2023-04-10T15:11:31.953Z,13.80
2023-04-10T15:14:00.261Z,13.86
2023-04-10T15:16:26.853Z,13.87
2023-04-10T15:18:53.387Z,13.97
2023-04-10T15:21:19.918Z,13.97
2023-04-10T15:23:46.448Z,13.98
2023-04-10T15:26:14.322Z,13.95
2023-04-10T15:28:42.999Z,13.77
2023-04-10T15:31:10.999Z,13.70
2023-04-10T15:33:39.295Z,13.54
2023-04-10T15:36:07.619Z,13.55
2023-04-10T15:38:35.460Z,13.54
2023-04-10T15:41:08.327Z,13.57
2023-04-10T15:43:35.347Z,13.67
2023-04-10T15:46:01.993Z,13.55
2023-04-10T15:48:29.287Z,13.60
2023-04-10T15:50:55.865Z,13.60
2023-04-10T15:53:22.402Z,13.65
2023-04-10T15:55:48.958Z,13.68
2023-04-10T15:58:15.555Z,13.73
2023-04-10T16:00:42.103Z,13.73
2023-04-10T16:03:08.814Z,13.70
2023-04-10T16:05:35.665Z,13.64
2023-04-10T16:08:03.014Z,13.61
2023-04-10T16:10:29.650Z,13.47
2023-04-10T16:12:56.762Z,13.36
2023-04-10T16:15:23.542Z,13.45
2023-04-10T16:17:50.097Z,13.36
2023-04-10T16:20:16.746Z,13.26
2023-04-10T16:22:43.312Z,13.32
2023-04-10T16:25:09.991Z,13.18
2023-04-10T16:27:36.545Z,13.15
2023-04-10T16:30:03.338Z,12.94
2023-04-10T16:32:31.753Z,12.89
2023-04-10T16:34:59.299Z,12.96
2023-04-10T16:37:26.248Z,12.93
2023-04-10T16:39:52.873Z,12.75
2023-04-10T16:42:19.900Z,12.77
2023-04-10T16:44:46.907Z,12.65
2023-04-10T16:47:13.989Z,12.67
2023-04-10T16:49:45.817Z,12.46
2023-04-10T16:52:12.946Z,12.73
2023-04-10T16:54:40.116Z,12.77
2023-04-10T16:57:06.922Z,12.78
2023-04-10T16:59:33.668Z,12.73
2023-04-10T17:02:00.624Z,12.58
2023-04-10T17:04:27.216Z,12.37
2023-04-10T17:06:53.800Z,12.51
2023-04-10T17:09:20.866Z,12.42
2023-04-10T17:11:47.449Z,12.33
2023-04-10T17:14:14.630Z,12.24
2023-04-10T17:16:41.234Z,12.23
2023-04-10T17:19:07.805Z,12.28
2023-04-10T17:21:34.367Z,12.14
2023-04-10T17:24:00.926Z,12.03
2023-04-10T17:26:27.770Z,12.08
2023-04-10T17:28:54.459Z,11.85
2023-04-10T17:31:21.192Z,11.68
2023-04-10T17:33:47.840Z,11.56
2023-04-10T17:36:14.670Z,11.37
2023-04-10T17:38:42.303Z,11.38
2023-04-10T17:41:10.126Z,11.23
2023-04-10T17:43:36.763Z,11.15
2023-04-10T17:46:03.339Z,11.10
2023-04-10T17:48:30.056Z,10.87
2023-04-10T17:50:56.644Z,10.90
2023-04-10T17:53:23.206Z,10.95
2023-04-10T17:55:49.719Z,10.75
2023-04-10T17:58:16.241Z,10.80
2023-04-10T18:00:43.362Z,10.78
2023-04-10T18:03:10.471Z,10.67
2023-04-10T18:05:38.644Z,10.79
2023-04-10T18:08:06.366Z,10.72
2023-04-10T18:10:32.958Z,10.72
2023-04-10T18:12:59.762Z,10.78
2023-04-10T18:15:26.554Z,10.49
2023-04-10T18:17:53.698Z,10.36
2023-04-10T18:20:20.950Z,10.37
2023-04-10T18:22:48.366Z,10.32
2023-04-10T18:25:16.130Z,10.31
2023-04-10T18:27:51.411Z,10.22
2023-04-10T18:30:22.111Z,10.23
2023-04-10T18:32:52.077Z,10.18
2023-04-10T18:35:19.035Z,10.02
2023-04-10T18:37:45.651Z,10.09
2023-04-10T18:40:16.416Z,10.08
2023-04-10T18:42:44.415Z,9.97
2023-04-10T18:45:13.069Z,9.82
2023-04-10T18:47:39.741Z,9.77
2023-04-10T18:50:07.047Z,9.73
2023-04-10T18:52:33.651Z,9.62
2023-04-10T18:55:00.399Z,9.59
2023-04-10T18:57:26.926Z,9.55
2023-04-10T18:59:53.562Z,9.49
2023-04-10T19:02:20.656Z,9.38
2023-04-10T19:04:47.494Z,9.36
2023-04-10T19:07:14.424Z,9.24
2023-04-10T19:09:41.049Z,9.20
2023-04-10T19:12:07.583Z,9.06
2023-04-10T19:14:36.421Z,9.07
2023-04-10T19:17:06.139Z,9.07
2023-04-10T19:19:33.981Z,9.03
2023-04-10T19:22:01.210Z,8.99
2023-04-10T19:24:27.921Z,8.90
2023-04-10T19:26:56.305Z,8.94
2023-04-10T19:29:23.177Z,8.87
2023-04-10T19:31:49.773Z,8.79
2023-04-10T19:34:16.425Z,8.79
2023-04-10T19:36:42.975Z,8.72
2023-04-10T19:39:09.611Z,8.69
2023-04-10T19:41:37.242Z,8.65
2023-04-10T19:44:03.789Z,8.60
2023-04-10T19:46:30.559Z,8.57
2023-04-10T19:48:57.163Z,8.53
2023-04-10T19:51:23.958Z,8.48
2023-04-10T19:53:50.549Z,8.37
2023-04-10T19:56:17.214Z,8.39
2023-04-10T19:58:46.858Z,8.37
2023-04-10T20:01:13.820Z,8.22
2023-04-10T20:03:43.279Z,8.25
2023-04-10T20:06:10.407Z,8.02
2023-04-10T20:08:37.124Z,8.08
2023-04-10T20:11:06.302Z,8.11
2023-04-10T20:13:34.437Z,8.07
2023-04-10T20:16:01.129Z,8.03
2023-04-10T20:18:27.766Z,8.01
2023-04-10T20:20:54.281Z,7.98
2023-04-10T20:23:21.130Z,7.94
2023-04-10T20:25:47.709Z,7.99
2023-04-10T20:28:15.556Z,7.94
2023-04-10T20:30:43.893Z,7.93
2023-04-10T20:33:10.932Z,7.97
2023-04-10T20:35:37.665Z,7.96
2023-04-10T20:38:04.284Z,7.94
2023-04-10T20:40:30.963Z,7.94
2023-04-10T20:42:57.832Z,7.93
2023-04-10T20:45:24.397Z,7.93
2023-04-10T20:47:51.294Z,7.88
2023-04-10T20:50:18.625Z,7.83
2023-04-10T20:52:45.141Z,7.79
2023-04-10T20:55:11.794Z,7.79
2023-04-10T20:57:38.399Z,7.74
2023-04-10T21:00:05.647Z,7.65
2023-04-10T21:02:32.366Z,7.63
2023-04-10T21:04:59.676Z,7.65
2023-04-10T21:07:26.252Z,7.55
2023-04-10T21:09:53.004Z,7.52
2023-04-10T21:12:19.589Z,7.50
2023-04-10T21:14:46.374Z,7.61
2023-04-10T21:17:12.981Z,7.60
2023-04-10T21:19:39.522Z,7.72
2023-04-10T21:22:06.149Z,7.69
2023-04-10T21:24:32.698Z,7.72
2023-04-10T21:26:59.287Z,7.72
2023-04-10T21:29:26.190Z,7.72
2023-04-10T21:31:52.817Z,7.65
2023-04-10T21:34:19.347Z,7.66
2023-04-10T21:36:45.919Z,7.66
2023-04-10T21:39:12.513Z,7.68
2023-04-10T21:41:39.606Z,7.63
2023-04-10T21:44:06.800Z,7.62
2023-04-10T21:46:33.714Z,7.62
2023-04-10T21:49:00.548Z,7.60
2023-04-10T21:51:27.682Z,7.50
2023-04-10T21:53:54.322Z,7.43
2023-04-10T21:56:21.016Z,7.40
2023-04-10T21:58:47.683Z,7.37
2023-04-10T22:01:14.394Z,7.38
2023-04-10T22:03:41.736Z,7.41
2023-04-10T22:06:09.111Z,7.35
2023-04-10T22:08:38.431Z,7.32
2023-04-10T22:11:06.081Z,7.25
2023-04-10T22:13:32.868Z,7.25
2023-04-10T22:16:01.881Z,7.24
2023-04-10T22:18:28.774Z,7.20
2023-04-10T22:20:55.594Z,7.15
2023-04-10T22:23:22.340Z,7.15
2023-04-10T22:25:48.855Z,7.09
2023-04-10T22:28:15.827Z,7.10
2023-04-10T22:30:42.597Z,7.03
2023-04-10T22:33:10.514Z,7.05
2023-04-10T22:35:37.296Z,6.99
2023-04-10T22:38:04.005Z,6.97
2023-04-10T22:40:31.244Z,6.93
2023-04-10T22:42:57.822Z,6.85
2023-04-10T22:45:24.362Z,6.84
2023-04-10T22:47:50.905Z,6.89
2023-04-10T22:50:17.467Z,6.85
2023-04-10T22:52:44.077Z,6.80
2023-04-10T22:55:10.766Z,6.83
2023-04-10T22:57:37.491Z,6.83
2023-04-10T23:00:07.712Z,6.79
2023-04-10T23:02:34.244Z,6.72
2023-04-10T23:05:03.062Z,6.74
2023-04-10T23:07:29.691Z,6.71
2023-04-10T23:09:56.328Z,6.72
2023-04-10T23:12:22.923Z,6.66
2023-04-10T23:14:49.458Z,6.68
2023-04-10T23:17:15.985Z,6.68
2023-04-10T23:19:42.566Z,6.65
2023-04-10T23:22:09.139Z,6.60
2023-04-10T23:24:35.764Z,6.61
2023-04-10T23:27:03.479Z,6.62
2023-04-10T23:29:30.089Z,6.61
2023-04-10T23:31:56.702Z,6.59
2023-04-10T23:34:23.341Z,6.56
2023-04-10T23:36:49.849Z,6.54
2023-04-10T23:39:16.519Z,6.52
2023-04-10T23:41:43.099Z,6.55
2023-04-10T23:44:09.704Z,6.49
2023-04-10T23:46:36.284Z,6.49
2023-04-10T23:49:02.905Z,6.45
2023-04-10T23:51:31.950Z,6.46
2023-04-10T23:53:58.847Z,6.48
2023-04-10T23:56:29.239Z,6.52
2023-04-10T23:58:56.508Z,6.49
